Time;durP1;ratioP1;P1;durP2;ratioP2;P2;SDS_P1;SDS_P2;PMS_P1;PMS_P2;Temp;Humidity;BMP_temperature;BMP_pressure;BME280_temperature;BME280_humidity;BME280_pressure;Samples;Min_cycle;Max_cycle;Signal;HPM_P1;HPM_P2
2022/12/08 00:18:21;;;;;;;6.13;4.32;;;;;;;20.59;51.02;100237.03;20741323;28;20120;-84
2022/12/08 00:28:22;;;;;;;6.22;4.38;;;;;;;20.59;51.02;100238.81;20742808;28;20106;-81
2022/12/08 00:38:23;;;;;;;6.65;4.28;;;;;;;20.56;50.95;100239.88;20742920;28;20045;-81
2022/12/08 00:48:25;;;;;;;6.40;4.40;;;;;;;20.53;50.92;100249.81;20740739;28;20053;-82
2022/12/08 00:58:25;;;;;;;5.72;4.60;;;;;;;20.51;51.10;100244.66;20738257;28;20500;-82
2022/12/08 01:08:26;;;;;;;5.22;4.32;;;;;;;20.51;51.03;100252.56;20742192;28;20052;-82
2022/12/08 01:18:33;;;;;;;6.10;4.30;;;;;;;20.50;51.23;100245.63;20738677;28;20037;-82
2022/12/08 01:28:34;;;;;;;7.40;4.57;;;;;;;20.49;50.93;100243.94;20746260;28;20276;-82
2022/12/08 01:38:34;;;;;;;7.25;4.28;;;;;;;20.50;51.05;100248.25;20745318;28;20078;-81
2022/12/08 01:48:35;;;;;;;7.25;4.70;;;;;;;20.48;51.02;100237.84;20740276;28;20045;-82
2022/12/08 01:58:40;;;;;;;6.15;4.43;;;;;;;20.48;51.05;100229.97;20738928;28;20942;-82
2022/12/08 02:08:41;;;;;;;5.68;4.68;;;;;;;20.46;50.88;100223.16;20739333;28;20058;-83
2022/12/08 02:19:15;;;;;;;7.03;4.97;;;;;;;20.48;51.07;100219.44;20741278;28;20056;-82
2022/12/08 02:29:43;;;;;;;6.88;4.93;;;;;;;20.46;51.12;100215.25;20737473;28;20137;-82
2022/12/08 02:39:58;;;;;;;6.82;4.85;;;;;;;20.44;51.10;100209.28;20735858;28;20125;-82
2022/12/08 02:49:59;;;;;;;7.65;5.25;;;;;;;20.43;50.69;100202.34;20737647;28;20041;-81
2022/12/08 03:00:12;;;;;;;7.05;5.00;;;;;;;20.43;50.76;100184.78;20737920;28;20182;-82
2022/12/08 03:10:39;;;;;;;;;;;;;;;20.42;51.02;100185.72;20735149;28;20072;-82
2022/12/08 03:20:42;;;;;;;6.45;5.00;;;;;;;20.44;50.87;100180.34;20741342;28;20377;-82
2022/12/08 03:30:46;;;;;;;7.05;5.38;;;;;;;20.43;50.69;100191.81;20735556;28;20042;-82
2022/12/08 03:41:32;;;;;;;8.38;5.28;;;;;;;20.42;50.89;100188.38;20744099;28;20045;-82
2022/12/08 03:51:08;;;;;;;7.78;5.60;;;;;;;20.43;51.09;100189.19;20739372;28;20120;-83
2022/12/08 04:01:08;;;;;;;6.60;5.10;;;;;;;20.42;50.96;100182.25;20736377;28;20045;-83
2022/12/08 04:11:10;;;;;;;7.28;5.00;;;;;;;20.40;50.99;100177.13;20745536;28;20049;-81
2022/12/08 04:21:11;;;;;;;9.13;5.25;;;;;;;20.38;51.12;100171.13;20753519;28;20088;-82
2022/12/08 04:31:11;;;;;;;6.93;5.10;;;;;;;20.38;51.09;100159.78;20745286;28;20033;-82
2022/12/08 04:41:12;;;;;;;7.70;5.30;;;;;;;20.37;50.93;100163.38;20743149;28;20042;-82
2022/12/08 04:51:17;;;;;;;6.53;5.10;;;;;;;20.38;51.12;100154.53;20739482;28;20115;-80
2022/12/08 05:01:18;;;;;;;7.32;5.80;;;;;;;20.39;51.17;100153.56;20718377;28;20034;-79
2022/12/08 05:11:18;;;;;;;6.82;5.20;;;;;;;20.42;51.24;100169.09;20706014;28;20045;-84
2022/12/08 05:21:19;;;;;;;8.48;5.55;;;;;;;20.46;52.23;100162.66;20722392;28;20042;-79
2022/12/08 05:31:19;;;;;;;20.00;6.88;;;;;;;20.55;52.76;100161.09;20717840;28;20471;-79
2022/12/08 05:41:20;;;;;;;17.92;6.93;;;;;;;20.66;52.48;100144.47;20745978;28;20049;-80
2022/12/08 05:51:22;;;;;;;19.30;7.38;;;;;;;20.71;51.69;100135.25;20747407;28;20034;-77
2022/12/08 06:01:28;;;;;;;20.23;7.97;;;;;;;20.76;51.53;100153.34;20742387;28;20137;-76
2022/12/08 06:11:31;;;;;;;23.25;10.43;;;;;;;20.64;46.90;100147.19;20760843;28;20037;-78
2022/12/08 06:21:32;;;;;;;28.03;8.90;;;;;;;20.81;50.27;100164.31;20768183;28;20034;-77
2022/12/08 06:31:32;;;;;;;18.10;7.90;;;;;;;20.93;50.42;100167.78;20777065;28;20042;-78
2022/12/08 06:42:42;;;;;;;19.77;8.15;;;;;;;21.01;50.18;100167.19;20767164;28;20069;-81
2022/12/08 06:51:53;;;;;;;15.52;7.82;;;;;;;21.05;49.96;100169.44;20767755;28;20046;-80
2022/12/08 07:01:53;;;;;;;17.75;7.55;;;;;;;21.15;49.96;100185.31;20776648;28;20455;-79
2022/12/08 07:11:54;;;;;;;15.35;7.20;;;;;;;21.22;50.12;100178.59;20772383;28;20038;-80
2022/12/08 07:21:54;;;;;;;15.90;7.35;;;;;;;21.28;50.01;100177.28;20764698;28;20104;-78
2022/12/08 07:31:54;;;;;;;11.55;6.50;;;;;;;21.34;49.77;100171.50;20779065;28;20038;-78
2022/12/08 07:41:55;;;;;;;13.30;6.30;;;;;;;21.41;50.08;100159.50;20775410;28;20477;-79
2022/12/08 07:51:55;;;;;;;14.63;6.80;;;;;;;21.48;50.15;100177.44;20760912;28;20752;-77
2022/12/08 08:01:56;;;;;;;13.90;6.63;;;;;;;21.53;49.56;100159.44;20767989;28;20125;-79
2022/12/08 08:11:56;;;;;;;12.90;6.28;;;;;;;21.55;49.17;100165.44;20777927;28;20030;-80
2022/12/08 08:21:56;;;;;;;11.90;6.30;;;;;;;21.58;49.02;100152.88;20811701;28;20038;-78
2022/12/08 08:31:58;;;;;;;11.13;5.75;;;;;;;21.64;48.76;100158.59;20791792;28;20069;-80
2022/12/08 08:41:59;;;;;;;10.57;6.15;;;;;;;21.66;48.77;100154.06;20783121;28;20041;-77
2022/12/08 08:51:59;;;;;;;11.43;6.90;;;;;;;21.70;48.75;100156.31;20797736;28;20041;-78
2022/12/08 09:01:59;;;;;;;11.07;6.30;;;;;;;21.76;48.47;100160.22;20797068;28;20366;-79
2022/12/08 09:12:00;;;;;;;11.00;6.57;;;;;;;21.79;48.17;100138.03;20804604;28;20512;-79
2022/12/08 09:22:00;;;;;;;10.52;5.90;;;;;;;21.81;48.45;100151.94;20788977;28;20052;-79
2022/12/08 09:32:01;;;;;;;9.45;6.47;;;;;;;21.77;48.84;100119.72;20796966;28;20157;-84
2022/12/08 09:42:05;;;;;;;10.77;6.45;;;;;;;21.72;48.85;100129.81;20746275;28;20054;-78
2022/12/08 09:52:20;;;;;;;10.90;6.53;;;;;;;21.74;48.99;100106.81;20792300;28;20033;-79
2022/12/08 10:02:27;;;;;;;8.77;5.85;;;;;;;21.73;48.87;100089.31;20784566;28;20452;-77
2022/12/08 10:12:35;;;;;;;10.18;6.88;;;;;;;21.71;48.66;100088.63;20807576;28;20037;-78
2022/12/08 10:22:35;;;;;;;9.48;6.38;;;;;;;21.69;48.72;100095.81;20805923;28;20063;-78
2022/12/08 10:32:36;;;;;;;10.80;6.47;;;;;;;21.68;48.67;100079.16;20798716;28;20041;-78
2022/12/08 10:42:41;;;;;;;10.70;6.45;;;;;;;21.67;48.49;100064.31;20808159;28;20401;-78
2022/12/08 10:52:42;;;;;;;8.15;6.25;;;;;;;21.66;48.34;100049.47;20805582;28;20041;-78
2022/12/08 11:02:53;;;;;;;11.43;6.63;;;;;;;21.68;48.31;100022.97;20795114;28;20125;-74
2022/12/08 11:12:54;;;;;;;8.38;6.25;;;;;;;21.66;48.16;100009.94;20787998;28;20917;-78
2022/12/08 11:22:55;;;;;;;8.05;5.95;;;;;;;21.66;48.16;99998.59;20791892;28;20292;-80
2022/12/08 11:33:07;;;;;;;8.32;5.63;;;;;;;21.58;48.58;99975.50;20809192;28;20046;-78
2022/12/08 11:43:20;;;;;;;9.60;6.17;;;;;;;21.62;48.33;99947.09;20783331;28;20034;-78
2022/12/08 11:53:51;;;;;;;6.28;5.10;;;;;;;21.63;48.26;99917.16;20779404;28;20104;-78
2022/12/08 12:04:42;;;;;;;9.63;5.68;;;;;;;21.64;47.93;99913.56;20792506;28;20149;-77
2022/12/08 12:15:26;;;;;;;9.43;5.57;;;;;;;21.64;48.65;99930.22;20781824;28;20131;-80
2022/12/08 12:25:27;;;;;;;10.98;5.25;;;;;;;21.62;48.44;99924.25;20780902;28;20065;-81
2022/12/08 12:35:31;;;;;;;6.87;5.30;;;;;;;21.65;48.11;99929.22;20806632;28;20049;-80
2022/12/08 12:45:32;;;;;;;7.82;5.20;;;;;;;21.64;48.08;99940.75;20803629;28;20327;-79
2022/12/08 12:55:54;;;;;;;6.50;4.85;;;;;;;21.63;47.91;99920.63;20809174;28;20041;-79
2022/12/08 13:05:54;;;;;;;6.05;4.43;;;;;;;21.59;47.99;99904.25;20799717;28;20049;-78
2022/12/08 13:16:03;;;;;;;7.38;4.88;;;;;;;21.60;48.15;99905.09;20799034;28;20052;-79
2022/12/08 13:26:26;;;;;;;6.25;4.40;;;;;;;21.58;47.87;99894.69;20790568;28;20811;-79
2022/12/08 13:36:37;;;;;;;5.55;4.22;;;;;;;21.59;47.78;99899.00;20774978;28;20034;-80
2022/12/08 13:46:52;;;;;;;5.97;4.18;;;;;;;21.55;48.03;99909.91;20747687;28;20061;-79
2022/12/08 13:56:55;;;;;;;10.20;4.53;;;;;;;21.50;48.24;99894.47;20730466;28;20358;-82
2022/12/08 14:06:58;;;;;;;14.17;4.60;;;;;;;21.50;47.84;99889.22;20736570;28;20045;-85
2022/12/08 14:17:05;;;;;;;7.93;4.45;;;;;;;21.44;48.38;99890.56;20730905;28;20057;-83
2022/12/08 14:27:13;;;;;;;8.45;3.97;;;;;;;21.53;47.59;99896.00;20737559;28;20393;-83
2022/12/08 14:37:14;;;;;;;7.80;4.25;;;;;;;21.56;47.88;99901.88;20748003;28;20385;-84
2022/12/08 14:47:19;;;;;;;6.47;4.25;;;;;;;21.56;47.87;99901.88;20754724;28;20042;-81
2022/12/08 14:57:20;;;;;;;6.47;3.80;;;;;;;21.51;48.50;99898.78;20759565;28;20049;-83
2022/12/08 15:07:27;;;;;;;8.07;3.50;;;;;;;21.55;47.74;99891.44;20741361;28;20056;-81
2022/12/08 15:17:33;;;;;;;6.75;3.67;;;;;;;21.50;48.33;99881.31;20744639;28;20049;-81
2022/12/08 15:27:34;;;;;;;11.82;4.47;;;;;;;21.47;47.88;99886.00;20754839;28;20041;-82
2022/12/08 15:37:35;;;;;;;7.25;4.22;;;;;;;21.46;47.71;99890.47;20773224;28;20173;-83
2022/12/08 15:47:35;;;;;;;7.43;3.70;;;;;;;21.45;48.17;99854.53;20764279;28;20198;-87
2022/12/08 15:57:36;;;;;;;5.50;3.55;;;;;;;21.42;48.35;99865.31;20758932;28;20041;-87
2022/12/08 16:07:36;;;;;;;4.97;3.50;;;;;;;21.40;48.24;99862.00;20763564;28;20741;-84
2022/12/08 16:17:40;;;;;;;5.38;3.53;;;;;;;21.37;48.33;99855.22;20764636;28;20048;-84
2022/12/08 16:27:40;;;;;;;5.72;3.70;;;;;;;21.37;48.39;99878.06;20769052;28;20045;-87
2022/12/08 16:37:42;;;;;;;6.85;3.38;;;;;;;21.31;49.06;99853.09;20748757;28;20092;-83
2022/12/08 16:47:46;;;;;;;6.85;4.13;;;;;;;21.32;49.83;99836.31;20743427;28;20045;-84
2022/12/08 16:57:48;;;;;;;8.52;4.13;;;;;;;21.34;50.81;99857.28;20744004;28;20045;-84
2022/12/08 17:07:50;;;;;;;7.90;4.63;;;;;;;21.32;52.41;99867.09;20733750;28;20129;-80
2022/12/08 17:17:51;;;;;;;10.63;4.60;;;;;;;21.33;52.18;99858.25;20733404;28;20042;-81
2022/12/08 17:27:52;;;;;;;8.05;4.25;;;;;;;21.28;52.63;99864.72;20747900;28;20057;-82
2022/12/08 17:37:52;;;;;;;6.53;3.83;;;;;;;21.36;52.58;99873.75;20741397;28;20052;-80
2022/12/08 17:47:56;;;;;;;11.10;4.70;;;;;;;21.38;53.15;99854.22;20747062;28;20701;-84
2022/12/08 17:57:57;;;;;;;8.48;4.85;;;;;;;21.45;54.07;99851.91;20752160;28;20187;-84
2022/12/08 18:07:57;;;;;;;10.02;5.05;;;;;;;21.46;54.47;99858.84;20728818;28;20050;-84
2022/12/08 18:17:58;;;;;;;9.27;5.70;;;;;;;21.52;56.83;99839.88;20747919;28;20047;-81
2022/12/08 18:27:59;;;;;;;7.80;5.78;;;;;;;21.51;56.94;99837.38;20725898;28;20045;-80
2022/12/08 18:38:00;;;;;;;19.23;7.05;;;;;;;21.50;55.60;99825.16;20715090;28;20099;-76
2022/12/08 18:48:11;;;;;;;10.40;6.20;;;;;;;21.54;55.48;99848.44;20729774;28;20049;-81
2022/12/08 18:58:13;;;;;;;15.93;5.57;;;;;;;21.56;55.21;99857.09;20743513;28;20073;-80
2022/12/08 19:08:14;;;;;;;7.37;4.90;;;;;;;21.56;54.45;99838.66;20764828;28;20151;-83
2022/12/08 19:18:15;;;;;;;8.80;5.20;;;;;;;21.54;54.18;99845.00;20742980;28;20037;-82
2022/12/08 19:28:22;;;;;;;8.48;5.05;;;;;;;21.52;53.94;99854.81;20732716;28;20052;-81
2022/12/08 19:38:22;;;;;;;8.65;5.03;;;;;;;21.51;53.55;99853.19;20751193;28;20075;-81
2022/12/08 19:48:28;;;;;;;10.77;4.75;;;;;;;21.49;54.58;99848.03;20758188;28;20057;-83
2022/12/08 19:58:29;;;;;;;8.73;4.57;;;;;;;21.46;54.31;99847.47;20745847;28;20052;-76
2022/12/08 20:08:30;;;;;;;11.05;4.95;;;;;;;21.44;54.13;99837.88;20709654;28;20041;-81
2022/12/08 20:18:34;;;;;;;7.93;4.53;;;;;;;21.44;53.42;99831.81;20726669;28;20049;-78
2022/12/08 20:28:36;;;;;;;12.48;5.78;;;;;;;21.28;52.36;99806.78;20743407;28;20535;-80
2022/12/08 20:38:36;;;;;;;10.85;5.72;;;;;;;21.21;53.50;99802.19;20754794;28;20068;-78
2022/12/08 20:48:37;;;;;;;9.45;5.35;;;;;;;21.23;53.83;99822.16;20755835;28;20042;-77
2022/12/08 20:58:39;;;;;;;9.98;5.03;;;;;;;21.19;53.86;99839.19;20752509;28;20033;-77
2022/12/08 21:08:41;;;;;;;6.20;4.33;;;;;;;21.15;54.04;99843.03;20747914;28;20073;-80
2022/12/08 21:18:41;;;;;;;10.35;4.82;;;;;;;21.13;53.96;99844.16;20743789;28;20073;-77
2022/12/08 21:28:42;;;;;;;7.60;4.80;;;;;;;21.13;54.07;99854.69;20744713;28;20050;-77
2022/12/08 21:38:43;;;;;;;9.68;4.80;;;;;;;21.06;53.86;99831.50;20738262;28;20053;-78
2022/12/08 21:48:44;;;;;;;7.28;4.55;;;;;;;20.98;54.57;99801.56;20734931;28;20050;-78
2022/12/08 21:58:44;;;;;;;8.98;4.88;;;;;;;21.01;54.23;99802.13;20736896;28;20464;-77
2022/12/08 22:08:45;;;;;;;5.90;4.47;;;;;;;20.98;54.35;99815.53;20728278;28;20057;-78
2022/12/08 22:18:49;;;;;;;8.30;4.28;;;;;;;20.95;54.54;99811.38;20733055;28;20472;-78
2022/12/08 22:28:49;;;;;;;6.55;4.38;;;;;;;20.95;54.22;99813.19;20734119;28;20049;-78
2022/12/08 22:38:51;;;;;;;6.18;3.92;;;;;;;20.92;54.54;99826.59;20725919;28;20042;-78
2022/12/08 22:48:53;;;;;;;8.73;4.50;;;;;;;20.89;54.35;99821.59;20731174;28;20141;-78
2022/12/08 22:58:53;;;;;;;5.38;4.30;;;;;;;20.86;54.57;99812.19;20723792;28;20125;-77
2022/12/08 23:08:54;;;;;;;5.95;3.97;;;;;;;20.85;54.22;99825.44;20727541;28;20381;-79
2022/12/08 23:18:55;;;;;;;5.57;4.35;;;;;;;20.85;54.39;99822.81;20729791;28;20100;-76
2022/12/08 23:28:56;;;;;;;5.95;4.18;;;;;;;20.86;54.54;99809.53;20743622;28;20041;-78
2022/12/08 23:38:56;;;;;;;5.10;4.13;;;;;;;20.85;54.44;99804.38;20751375;28;20054;-80
2022/12/08 23:48:56;;;;;;;5.18;3.97;;;;;;;20.88;54.48;99812.03;20747430;28;20868;-78
2022/12/08 23:58:59;;;;;;;5.88;4.40;;;;;;;20.83;54.64;99798.44;20747395;28;20048;-77
